Time;durP1;ratioP1;P1;durP2;ratioP2;P2;SDS_P1;SDS_P2;PMS_P1;PMS_P2;Temp;Humidity;BMP_temperature;BMP_pressure;BME280_temperature;BME280_humidity;BME280_pressure;Samples;Min_cycle;Max_cycle;Signal;HPM_P1;HPM_P2
2023/08/05 00:00:51;;;;;;;10.75;7.72;;;;;;;;;;5025944;28;20418;-61
2023/08/05 00:03:18;;;;;;;12.23;7.88;;;;;;;;;;5028974;28;20415;-62
2023/08/05 00:05:45;;;;;;;9.88;7.60;;;;;;;;;;5022039;28;20463;-60
2023/08/05 00:08:12;;;;;;;9.68;7.30;;;;;;;;;;5028445;28;20473;-60
2023/08/05 00:10:42;;;;;;;11.23;7.40;;;;;;;;;;5022789;28;20433;-61
2023/08/05 00:13:09;;;;;;;11.60;7.80;;;;;;;;;;5027735;28;20417;-61
2023/08/05 00:15:38;;;;;;;13.00;7.88;;;;;;;;;;5029633;28;20411;-61
2023/08/05 00:18:05;;;;;;;14.53;8.00;;;;;;;;;;5027899;28;20493;-61
2023/08/05 00:20:32;;;;;;;12.98;7.97;;;;;;;;;;5025062;28;20411;-62
2023/08/05 00:22:59;;;;;;;12.32;7.65;;;;;;;;;;5026519;28;20810;-61
2023/08/05 00:25:26;;;;;;;10.60;7.20;;;;;;;;;;5020181;28;20435;-61
2023/08/05 00:27:53;;;;;;;13.05;8.00;;;;;;;;;;5018504;28;20427;-61
2023/08/05 00:30:20;;;;;;;11.07;8.00;;;;;;;;;;5024276;28;20427;-62
2023/08/05 00:32:48;;;;;;;11.93;8.05;;;;;;;;;;5025255;28;20899;-62
2023/08/05 00:35:15;;;;;;;13.38;8.20;;;;;;;;;;5027675;28;20484;-62
2023/08/05 00:37:42;;;;;;;11.63;8.13;;;;;;;;;;5024775;28;20482;-62
2023/08/05 00:40:10;;;;;;;12.95;8.30;;;;;;;;;;5026646;28;20414;-62
2023/08/05 00:42:37;;;;;;;12.35;8.35;;;;;;;;;;5025434;28;20900;-62
2023/08/05 00:45:04;;;;;;;10.90;7.50;;;;;;;;;;5033587;28;20483;-62
2023/08/05 00:47:31;;;;;;;12.43;8.18;;;;;;;;;;5025636;28;20421;-61
2023/08/05 00:50:00;;;;;;;13.65;7.85;;;;;;;;;;5024890;28;20483;-62
2023/08/05 00:52:27;;;;;;;11.23;8.20;;;;;;;;;;5022009;28;20541;-62
2023/08/05 00:54:54;;;;;;;12.80;7.65;;;;;;;;;;5024051;28;20416;-61
2023/08/05 00:57:21;;;;;;;12.73;7.93;;;;;;;;;;5025858;28;20830;-61
2023/08/05 00:59:48;;;;;;;12.20;7.82;;;;;;;;;;5024722;28;20449;-62
2023/08/05 01:02:15;;;;;;;15.30;8.57;;;;;;;;;;5028211;28;20496;-62
2023/08/05 01:04:42;;;;;;;12.38;8.57;;;;;;;;;;5025288;28;20936;-59
2023/08/05 01:07:11;;;;;;;17.02;8.52;;;;;;;;;;5023162;28;20955;-58
2023/08/05 01:09:38;;;;;;;15.05;8.43;;;;;;;;;;5024846;28;20505;-60
2023/08/05 01:12:05;;;;;;;17.90;8.88;;;;;;;;;;5024410;28;20449;-60
2023/08/05 01:14:32;;;;;;;13.38;8.82;;;;;;;;;;5033146;28;20473;-60
2023/08/05 01:16:59;;;;;;;11.23;8.65;;;;;;;;;;5027721;28;20427;-60
2023/08/05 01:19:28;;;;;;;12.38;8.40;;;;;;;;;;5025677;28;20914;-58
2023/08/05 01:21:59;;;;;;;12.93;8.23;;;;;;;;;;5022198;28;20526;-60
2023/08/05 01:24:31;;;;;;;12.88;8.40;;;;;;;;;;5025393;28;20886;-60
2023/08/05 01:27:00;;;;;;;13.88;8.13;;;;;;;;;;5024979;28;20423;-59
2023/08/05 01:29:27;;;;;;;12.23;8.43;;;;;;;;;;5025440;28;20435;-60
2023/08/05 01:31:55;;;;;;;15.77;8.93;;;;;;;;;;5021272;28;20888;-59
2023/08/05 01:34:22;;;;;;;13.50;8.73;;;;;;;;;;5029203;28;20423;-59
2023/08/05 01:36:49;;;;;;;12.15;9.20;;;;;;;;;;5020780;28;20962;-59
2023/08/05 01:39:16;;;;;;;16.42;9.68;;;;;;;;;;5028018;28;20500;-59
2023/08/05 01:41:43;;;;;;;16.58;9.43;;;;;;;;;;5022998;28;20787;-58
2023/08/05 01:44:12;;;;;;;16.80;9.50;;;;;;;;;;5031424;28;20471;-59
2023/08/05 01:46:39;;;;;;;13.70;9.45;;;;;;;;;;5020774;28;20467;-61
2023/08/05 01:49:06;;;;;;;18.92;9.93;;;;;;;;;;5027963;28;20963;-60
2023/08/05 01:51:33;;;;;;;16.55;9.68;;;;;;;;;;5024294;28;20433;-60
2023/08/05 01:54:00;;;;;;;12.73;9.00;;;;;;;;;;5027742;28;20477;-60
2023/08/05 01:56:27;;;;;;;17.92;10.85;;;;;;;;;;5027619;28;20427;-61
2023/08/05 01:58:54;;;;;;;15.93;9.43;;;;;;;;;;5027292;28;20896;-60
2023/08/05 02:01:22;;;;;;;14.15;9.57;;;;;;;;;;5023052;28;20473;-61
2023/08/05 02:03:49;;;;;;;15.83;9.77;;;;;;;;;;5027422;28;20432;-61
2023/08/05 02:06:16;;;;;;;15.93;9.65;;;;;;;;;;5022820;28;20461;-59
2023/08/05 02:08:43;;;;;;;17.35;10.73;;;;;;;;;;5024447;28;20415;-61
2023/08/05 02:11:10;;;;;;;18.00;9.05;;;;;;;;;;5025553;28;20431;-60
2023/08/05 02:13:37;;;;;;;14.48;9.95;;;;;;;;;;5028292;28;20476;-61
2023/08/05 02:16:04;;;;;;;16.93;9.67;;;;;;;;;;5031091;28;20901;-59
2023/08/05 02:18:32;;;;;;;15.60;9.90;;;;;;;;;;5026259;28;21188;-61
2023/08/05 02:21:01;;;;;;;15.70;9.18;;;;;;;;;;5023579;28;20412;-61
2023/08/05 02:23:28;;;;;;;16.57;9.77;;;;;;;;;;5025810;28;20497;-59
2023/08/05 02:25:55;;;;;;;12.63;9.13;;;;;;;;;;5028411;28;20980;-60
2023/08/05 02:28:22;;;;;;;12.80;9.40;;;;;;;;;;5025403;28;20411;-59
2023/08/05 02:30:49;;;;;;;12.43;8.60;;;;;;;;;;5021230;28;20771;-60
2023/08/05 02:33:16;;;;;;;13.43;8.52;;;;;;;;;;5025338;28;20415;-60
2023/08/05 02:35:46;;;;;;;15.88;9.45;;;;;;;;;;5021623;28;20468;-61
2023/08/05 02:38:13;;;;;;;14.80;9.23;;;;;;;;;;5024102;28;20438;-60
2023/08/05 02:40:40;;;;;;;12.93;8.63;;;;;;;;;;5021277;28;20415;-60
2023/08/05 02:43:07;;;;;;;12.35;8.38;;;;;;;;;;5025373;28;20780;-61
2023/08/05 02:45:34;;;;;;;10.52;8.38;;;;;;;;;;5033181;28;20488;-61
2023/08/05 02:48:01;;;;;;;10.63;8.07;;;;;;;;;;5024171;28;20411;-60
2023/08/05 02:50:28;;;;;;;15.13;8.60;;;;;;;;;;5021469;28;20461;-61
2023/08/05 02:52:57;;;;;;;14.73;8.47;;;;;;;;;;5020127;28;21015;-59
2023/08/05 02:55:24;;;;;;;9.45;7.68;;;;;;;;;;5024860;28;20483;-60
2023/08/05 02:57:51;;;;;;;14.55;8.85;;;;;;;;;;5024408;28;20408;-60
2023/08/05 03:00:18;;;;;;;14.30;9.43;;;;;;;;;;5024779;28;20909;-59
2023/08/05 03:02:45;;;;;;;15.38;8.48;;;;;;;;;;5029070;28;20420;-60
2023/08/05 03:05:12;;;;;;;13.55;9.43;;;;;;;;;;5023628;28;20468;-61
2023/08/05 03:07:39;;;;;;;12.93;8.70;;;;;;;;;;5024924;28;20500;-59
2023/08/05 03:10:08;;;;;;;12.50;8.65;;;;;;;;;;5026728;28;20440;-61
2023/08/05 03:12:35;;;;;;;15.60;9.52;;;;;;;;;;5027784;28;20889;-60
2023/08/05 03:15:02;;;;;;;10.65;8.63;;;;;;;;;;5037663;28;20470;-61
2023/08/05 03:17:29;;;;;;;13.73;8.63;;;;;;;;;;5021933;28;20425;-61
2023/08/05 03:19:56;;;;;;;15.95;9.15;;;;;;;;;;5025119;28;20895;-61
2023/08/05 03:22:23;;;;;;;11.55;8.15;;;;;;;;;;5026032;28;20419;-61
2023/08/05 03:24:50;;;;;;;11.32;8.57;;;;;;;;;;5028845;28;20415;-60
2023/08/05 03:27:18;;;;;;;11.82;8.38;;;;;;;;;;5026233;28;20422;-61
2023/08/05 03:29:46;;;;;;;12.98;8.88;;;;;;;;;;5024849;28;20835;-61
2023/08/05 03:32:13;;;;;;;15.35;8.52;;;;;;;;;;5024448;28;20415;-60
2023/08/05 03:34:40;;;;;;;14.93;8.80;;;;;;;;;;5028264;28;20423;-61
2023/08/05 03:37:07;;;;;;;12.70;9.40;;;;;;;;;;5025031;28;20515;-61
2023/08/05 03:39:34;;;;;;;17.48;10.50;;;;;;;;;;5029585;28;20770;-60
2023/08/05 03:42:01;;;;;;;14.97;9.63;;;;;;;;;;5026789;28;20518;-61
2023/08/05 03:44:29;;;;;;;15.02;10.13;;;;;;;;;;5033835;28;20472;-60
2023/08/05 03:46:56;;;;;;;13.68;9.27;;;;;;;;;;5027471;28;21090;-61
2023/08/05 03:49:23;;;;;;;15.07;9.93;;;;;;;;;;5029437;28;20477;-60
2023/08/05 03:51:50;;;;;;;12.53;9.07;;;;;;;;;;5025346;28;20801;-60
2023/08/05 03:54:17;;;;;;;14.43;10.20;;;;;;;;;;5027918;28;20483;-61
2023/08/05 03:56:44;;;;;;;14.20;9.90;;;;;;;;;;5024990;28;20467;-61
2023/08/05 03:59:11;;;;;;;18.40;10.70;;;;;;;;;;5028775;28;20485;-61
2023/08/05 04:01:39;;;;;;;16.75;11.43;;;;;;;;;;5025292;28;20407;-60
2023/08/05 04:04:06;;;;;;;18.35;11.40;;;;;;;;;;5027531;28;20764;-60
2023/08/05 04:06:33;;;;;;;16.90;11.02;;;;;;;;;;5028063;28;20432;-60
2023/08/05 04:09:00;;;;;;;18.55;10.98;;;;;;;;;;5026307;28;20420;-60
2023/08/05 04:11:27;;;;;;;20.40;12.07;;;;;;;;;;5028268;28;20442;-61
2023/08/05 04:13:58;;;;;;;19.87;12.80;;;;;;;;;;5028829;28;20474;-60
2023/08/05 04:16:25;;;;;;;19.88;13.27;;;;;;;;;;5024806;28;20897;-59
2023/08/05 04:18:53;;;;;;;20.63;14.07;;;;;;;;;;5027166;28;20491;-59
2023/08/05 04:21:23;;;;;;;19.60;13.05;;;;;;;;;;5024072;28;20469;-61
2023/08/05 04:23:50;;;;;;;21.92;13.90;;;;;;;;;;5025514;28;20421;-61
2023/08/05 04:26:17;;;;;;;21.90;13.77;;;;;;;;;;5020479;28;20486;-59
2023/08/05 04:28:44;;;;;;;24.27;13.00;;;;;;;;;;5022104;28;20471;-59
2023/08/05 04:31:11;;;;;;;23.40;13.70;;;;;;;;;;5016897;28;20440;-59
2023/08/05 04:33:38;;;;;;;23.45;13.88;;;;;;;;;;5022454;28;20415;-61
2023/08/05 04:36:06;;;;;;;21.25;14.00;;;;;;;;;;5025676;28;20416;-61
2023/08/05 04:38:33;;;;;;;24.25;13.93;;;;;;;;;;5025999;28;20469;-59
2023/08/05 04:41:01;;;;;;;20.15;13.05;;;;;;;;;;5024554;28;20435;-60
2023/08/05 04:43:28;;;;;;;20.50;13.23;;;;;;;;;;5028657;28;20426;-61
2023/08/05 04:45:55;;;;;;;18.95;13.15;;;;;;;;;;5026728;28;20461;-61
2023/08/05 04:48:22;;;;;;;21.83;13.73;;;;;;;;;;5026204;28;21071;-59
2023/08/05 04:50:49;;;;;;;20.52;14.00;;;;;;;;;;5022533;28;20511;-60
2023/08/05 04:53:17;;;;;;;22.98;13.73;;;;;;;;;;5023862;28;20419;-61
2023/08/05 04:55:44;;;;;;;24.00;15.38;;;;;;;;;;5029683;28;21005;-61
2023/08/05 04:58:11;;;;;;;25.93;14.47;;;;;;;;;;5025033;28;20473;-59
2023/08/05 05:00:39;;;;;;;25.95;15.88;;;;;;;;;;5025775;28;20456;-61
2023/08/05 05:03:07;;;;;;;25.95;16.63;;;;;;;;;;5022245;28;20415;-60
2023/08/05 05:05:35;;;;;;;28.17;17.08;;;;;;;;;;5026482;28;20930;-61
2023/08/05 05:08:02;;;;;;;29.95;17.10;;;;;;;;;;5025297;28;20515;-61
2023/08/05 05:10:30;;;;;;;26.52;16.60;;;;;;;;;;5026869;28;20904;-61
2023/08/05 05:12:58;;;;;;;29.50;17.85;;;;;;;;;;5024579;28;20527;-59
2023/08/05 05:15:25;;;;;;;28.42;17.83;;;;;;;;;;5030591;28;20483;-60
2023/08/05 05:17:52;;;;;;;29.38;17.52;;;;;;;;;;5028129;28;20426;-61
2023/08/05 05:20:19;;;;;;;29.67;18.15;;;;;;;;;;5027362;28;20446;-61
2023/08/05 05:22:46;;;;;;;27.80;18.58;;;;;;;;;;5024946;28;20428;-60
2023/08/05 05:25:13;;;;;;;29.08;19.65;;;;;;;;;;5027837;28;20426;-60
2023/08/05 05:27:41;;;;;;;35.20;21.47;;;;;;;;;;5023179;28;20442;-61
2023/08/05 05:30:08;;;;;;;35.58;21.10;;;;;;;;;;5030456;28;20522;-60
2023/08/05 05:32:35;;;;;;;37.17;22.60;;;;;;;;;;5026065;28;20425;-60
2023/08/05 05:35:03;;;;;;;36.03;22.38;;;;;;;;;;5026980;28;20908;-60
2023/08/05 05:37:30;;;;;;;32.88;21.13;;;;;;;;;;5021970;28;20411;-61
2023/08/05 05:39:56;;;;;;;30.00;18.80;;;;;;;;;;5024632;28;20421;-61
2023/08/05 05:42:24;;;;;;;31.17;19.48;;;;;;;;;;5025915;28;20928;-61
2023/08/05 05:44:53;;;;;;;30.58;19.50;;;;;;;;;;5031565;28;20430;-62
2023/08/05 05:47:20;;;;;;;31.00;19.15;;;;;;;;;;5022676;28;20489;-60
2023/08/05 05:49:47;;;;;;;27.20;18.42;;;;;;;;;;5026612;28;21054;-60
2023/08/05 05:52:16;;;;;;;28.53;17.30;;;;;;;;;;5022801;28;20448;-60
2023/08/05 05:54:43;;;;;;;25.03;15.97;;;;;;;;;;5027753;28;20809;-61
2023/08/05 05:57:10;;;;;;;26.40;16.38;;;;;;;;;;5021264;28;20478;-61
2023/08/05 05:59:38;;;;;;;25.80;16.50;;;;;;;;;;5018139;28;20969;-60
2023/08/05 06:02:07;;;;;;;21.83;14.75;;;;;;;;;;5022680;28;20527;-61
2023/08/05 06:04:34;;;;;;;22.67;14.90;;;;;;;;;;5028292;28;21796;-59
2023/08/05 06:07:02;;;;;;;22.23;15.15;;;;;;;;;;5021575;28;20420;-61
2023/08/05 06:09:31;;;;;;;22.90;14.63;;;;;;;;;;5024067;28;20419;-59
2023/08/05 06:11:58;;;;;;;20.98;14.00;;;;;;;;;;5021643;28;20453;-60
2023/08/05 06:14:25;;;;;;;20.20;14.35;;;;;;;;;;5033460;28;20461;-60
2023/08/05 06:16:52;;;;;;;19.67;13.25;;;;;;;;;;5022243;28;20472;-61
2023/08/05 06:19:20;;;;;;;21.30;13.65;;;;;;;;;;5019408;28;20812;-60
2023/08/05 06:21:47;;;;;;;17.67;12.18;;;;;;;;;;5023028;28;20477;-61
2023/08/05 06:24:14;;;;;;;14.63;11.13;;;;;;;;;;5024628;28;20473;-61
2023/08/05 06:26:41;;;;;;;15.88;11.05;;;;;;;;;;5025761;28;20415;-60
2023/08/05 06:29:08;;;;;;;14.18;10.50;;;;;;;;;;5024308;28;20420;-61
2023/08/05 06:31:35;;;;;;;17.73;11.80;;;;;;;;;;5024294;28;20485;-58
2023/08/05 06:34:02;;;;;;;15.45;10.35;;;;;;;;;;5029768;28;20423;-60
2023/08/05 06:36:30;;;;;;;14.57;10.30;;;;;;;;;;5031687;28;20824;-59
2023/08/05 06:38:57;;;;;;;16.55;10.43;;;;;;;;;;5029149;28;21435;-61
2023/08/05 06:41:24;;;;;;;15.90;10.70;;;;;;;;;;5034395;28;20423;-61
2023/08/05 06:43:51;;;;;;;15.27;10.30;;;;;;;;;;5034084;28;20421;-60
2023/08/05 06:46:19;;;;;;;14.30;9.65;;;;;;;;;;5034272;28;20472;-61
2023/08/05 06:48:46;;;;;;;16.00;10.77;;;;;;;;;;5031740;28;20422;-60
2023/08/05 06:51:13;;;;;;;14.68;9.85;;;;;;;;;;5031036;28;20430;-61
2023/08/05 06:53:44;;;;;;;14.88;10.13;;;;;;;;;;5031356;28;20431;-61
2023/08/05 06:56:11;;;;;;;14.63;9.60;;;;;;;;;;5030021;28;20419;-61
2023/08/05 06:58:38;;;;;;;13.50;9.77;;;;;;;;;;5029675;28;20477;-61
2023/08/05 07:01:05;;;;;;;13.18;10.38;;;;;;;;;;5029122;28;20425;-61
2023/08/05 07:03:32;;;;;;;15.25;10.65;;;;;;;;;;5032548;28;20972;-60
2023/08/05 07:05:59;;;;;;;15.30;10.50;;;;;;;;;;5032952;28;20923;-61
2023/08/05 07:08:27;;;;;;;15.02;10.50;;;;;;;;;;5030094;28;20525;-61
2023/08/05 07:10:56;;;;;;;13.85;10.05;;;;;;;;;;5029871;28;20996;-61
2023/08/05 07:13:23;;;;;;;16.58;10.18;;;;;;;;;;5035191;28;20406;-60
2023/08/05 07:15:50;;;;;;;16.00;10.82;;;;;;;;;;5040511;28;20525;-61
2023/08/05 07:18:17;;;;;;;14.20;10.43;;;;;;;;;;5029852;28;20464;-60
2023/08/05 07:20:44;;;;;;;21.05;12.55;;;;;;;;;;5030060;28;20415;-60
2023/08/05 07:23:11;;;;;;;19.58;13.45;;;;;;;;;;5028563;28;20463;-61
2023/08/05 07:25:38;;;;;;;21.25;14.10;;;;;;;;;;5030624;28;20411;-61
2023/08/05 07:28:07;;;;;;;19.08;14.90;;;;;;;;;;5030886;28;20422;-61
2023/08/05 07:30:34;;;;;;;24.05;16.45;;;;;;;;;;5032969;28;20893;-61
2023/08/05 07:33:02;;;;;;;25.30;17.58;;;;;;;;;;5031701;28;20482;-61
2023/08/05 07:35:29;;;;;;;26.02;18.92;;;;;;;;;;5033090;28;20478;-61
2023/08/05 07:37:56;;;;;;;27.73;21.33;;;;;;;;;;5026009;28;20421;-60
2023/08/05 07:40:23;;;;;;;33.67;23.67;;;;;;;;;;5035199;28;20419;-60
2023/08/05 07:42:52;;;;;;;32.10;24.43;;;;;;;;;;5026023;28;20416;-62
2023/08/05 07:45:21;;;;;;;35.33;25.55;;;;;;;;;;5037837;28;20455;-59
2023/08/05 07:47:48;;;;;;;35.78;25.88;;;;;;;;;;5022690;28;20834;-60
2023/08/05 07:50:16;;;;;;;41.58;29.15;;;;;;;;;;5028032;28;20481;-59
2023/08/05 07:52:44;;;;;;;40.78;28.17;;;;;;;;;;5028349;28;20798;-60
2023/08/05 07:55:11;;;;;;;40.13;27.83;;;;;;;;;;5029887;28;20418;-60
2023/08/05 07:57:40;;;;;;;37.80;25.90;;;;;;;;;;5025293;28;20527;-60
2023/08/05 08:00:09;;;;;;;42.20;27.90;;;;;;;;;;5026956;28;20472;-60
2023/08/05 08:02:38;;;;;;;37.15;26.80;;;;;;;;;;5027774;28;20484;-61
2023/08/05 08:05:07;;;;;;;35.28;25.30;;;;;;;;;;5029520;28;20779;-61
2023/08/05 08:07:34;;;;;;;32.95;23.05;;;;;;;;;;5024918;28;20419;-61
2023/08/05 08:10:01;;;;;;;34.57;24.10;;;;;;;;;;5026138;28;20417;-61
2023/08/05 08:12:28;;;;;;;30.83;21.75;;;;;;;;;;5023784;28;20836;-60
2023/08/05 08:14:55;;;;;;;30.77;22.15;;;;;;;;;;5030951;28;20420;-60
2023/08/05 08:17:22;;;;;;;29.73;21.20;;;;;;;;;;5023869;28;20999;-61
2023/08/05 08:19:51;;;;;;;28.27;21.95;;;;;;;;;;5023231;28;20430;-63
2023/08/05 08:22:18;;;;;;;28.87;21.20;;;;;;;;;;5026332;28;20418;-64
2023/08/05 08:24:45;;;;;;;29.25;21.77;;;;;;;;;;5029620;28;20426;-63
2023/08/05 08:27:12;;;;;;;33.00;22.40;;;;;;;;;;5033141;28;20421;-60
2023/08/05 08:29:39;;;;;;;31.10;22.37;;;;;;;;;;5029423;28;20472;-62
2023/08/05 08:32:06;;;;;;;29.00;20.92;;;;;;;;;;5027391;28;20544;-62
2023/08/05 08:34:33;;;;;;;23.93;18.10;;;;;;;;;;5028511;28;20457;-63
2023/08/05 08:37:01;;;;;;;28.00;19.50;;;;;;;;;;5029520;28;20832;-63
2023/08/05 08:39:28;;;;;;;22.97;16.50;;;;;;;;;;5026906;28;20511;-63
2023/08/05 08:41:56;;;;;;;22.48;16.27;;;;;;;;;;5022745;28;20407;-62
2023/08/05 08:44:23;;;;;;;21.20;15.23;;;;;;;;;;5030433;28;20415;-63
2023/08/05 08:46:51;;;;;;;20.57;16.90;;;;;;;;;;5030238;28;20419;-63
2023/08/05 08:49:18;;;;;;;21.08;16.70;;;;;;;;;;5025942;28;20415;-63
2023/08/05 08:51:47;;;;;;;17.93;13.60;;;;;;;;;;5026945;28;20411;-63
2023/08/05 08:54:16;;;;;;;17.85;13.38;;;;;;;;;;5026148;28;20479;-63
2023/08/05 08:56:43;;;;;;;20.25;15.45;;;;;;;;;;5027060;28;20473;-64
2023/08/05 08:59:10;;;;;;;23.00;14.38;;;;;;;;;;5032727;28;20415;-64
2023/08/05 09:01:39;;;;;;;21.33;15.18;;;;;;;;;;5033198;28;20437;-64
2023/08/05 09:04:07;;;;;;;18.73;14.93;;;;;;;;;;5026754;28;20424;-64
2023/08/05 09:06:34;;;;;;;22.13;15.48;;;;;;;;;;5031606;28;20414;-64
2023/08/05 09:09:01;;;;;;;20.27;14.43;;;;;;;;;;5023574;28;21110;-64
2023/08/05 09:11:29;;;;;;;20.65;15.20;;;;;;;;;;5030458;28;20415;-64
2023/08/05 09:13:57;;;;;;;18.33;13.93;;;;;;;;;;5028400;28;20433;-64
2023/08/05 09:16:24;;;;;;;17.37;13.10;;;;;;;;;;5030409;28;20407;-64
2023/08/05 09:18:53;;;;;;;19.60;13.40;;;;;;;;;;5028838;28;20415;-64
2023/08/05 09:21:22;;;;;;;18.65;12.82;;;;;;;;;;5028760;28;20450;-64
2023/08/05 09:23:49;;;;;;;16.27;12.13;;;;;;;;;;5029433;28;20416;-64
2023/08/05 09:26:26;;;;;;;15.32;11.68;;;;;;;;;;5028315;28;20498;-65
2023/08/05 09:28:55;;;;;;;17.30;12.68;;;;;;;;;;5026419;28;20415;-65
2023/08/05 09:31:22;;;;;;;15.25;11.70;;;;;;;;;;5028462;28;20415;-65
2023/08/05 09:33:49;;;;;;;16.52;11.88;;;;;;;;;;5029380;28;20427;-64
2023/08/05 09:36:17;;;;;;;17.77;12.50;;;;;;;;;;5030812;28;20446;-64
2023/08/05 09:38:45;;;;;;;19.15;12.32;;;;;;;;;;5024766;28;20932;-64
2023/08/05 09:41:13;;;;;;;16.13;12.07;;;;;;;;;;5030444;28;20434;-64
2023/08/05 09:43:43;;;;;;;15.75;12.50;;;;;;;;;;5031023;28;20402;-64
2023/08/05 09:46:12;;;;;;;15.65;12.02;;;;;;;;;;5032326;28;20898;-64
2023/08/05 09:48:43;;;;;;;14.77;12.05;;;;;;;;;;5025205;28;20415;-64
2023/08/05 09:51:14;;;;;;;15.32;11.60;;;;;;;;;;5029115;28;20494;-64
2023/08/05 09:53:42;;;;;;;13.77;10.30;;;;;;;;;;5024683;28;20459;-64
2023/08/05 09:56:10;;;;;;;13.68;10.75;;;;;;;;;;5031589;28;20809;-64
2023/08/05 09:58:38;;;;;;;11.70;9.52;;;;;;;;;;5024268;28;20427;-64
2023/08/05 10:01:07;;;;;;;13.75;9.80;;;;;;;;;;5026345;28;20420;-64
2023/08/05 10:03:37;;;;;;;12.27;10.02;;;;;;;;;;5030897;28;20890;-63
2023/08/05 10:06:06;;;;;;;12.18;9.32;;;;;;;;;;5025823;28;20412;-64
2023/08/05 10:08:35;;;;;;;13.60;10.30;;;;;;;;;;5026818;28;20471;-64
2023/08/05 10:11:02;;;;;;;13.55;11.13;;;;;;;;;;5025809;28;20561;-63
2023/08/05 10:13:30;;;;;;;12.57;11.00;;;;;;;;;;5027767;28;20844;-63
2023/08/05 10:15:58;;;;;;;14.23;10.73;;;;;;;;;;5024822;28;20536;-63
2023/08/05 10:18:26;;;;;;;14.40;10.65;;;;;;;;;;5024846;28;20423;-63
2023/08/05 10:20:55;;;;;;;12.57;10.90;;;;;;;;;;5020195;28;20421;-62
2023/08/05 10:23:26;;;;;;;12.40;10.73;;;;;;;;;;5024297;28;20423;-63
2023/08/05 10:26:01;;;;;;;12.27;10.97;;;;;;;;;;5022433;28;20588;-63
2023/08/05 10:28:42;;;;;;;12.50;10.40;;;;;;;;;;5022157;28;20557;-61
2023/08/05 10:31:24;;;;;;;11.13;10.00;;;;;;;;;;5023840;28;20407;-62
2023/08/05 10:34:10;;;;;;;10.73;9.60;;;;;;;;;;5026140;28;20480;-63
2023/08/05 10:36:45;;;;;;;11.77;9.65;;;;;;;;;;5026233;28;20481;-65
2023/08/05 10:39:39;;;;;;;12.00;9.77;;;;;;;;;;5022293;28;20416;-64
2023/08/05 10:42:18;;;;;;;11.25;10.05;;;;;;;;;;5026448;28;20411;-64
2023/08/05 10:44:45;;;;;;;11.50;10.15;;;;;;;;;;5030198;28;20451;-65
2023/08/05 10:47:12;;;;;;;11.83;9.97;;;;;;;;;;5022129;28;20422;-66
2023/08/05 10:49:39;;;;;;;11.07;9.85;;;;;;;;;;5016573;28;20477;-65
2023/08/05 10:52:16;;;;;;;12.45;9.20;;;;;;;;;;5026511;28;20411;-65
2023/08/05 10:54:43;;;;;;;10.55;9.35;;;;;;;;;;5020438;28;20457;-64
2023/08/05 10:57:29;;;;;;;10.95;9.68;;;;;;;;;;5024896;28;20427;-64
2023/08/05 10:59:59;;;;;;;11.73;10.43;;;;;;;;;;5026173;28;20503;-64
2023/08/05 11:02:26;;;;;;;11.45;10.25;;;;;;;;;;5023747;28;20489;-64
2023/08/05 11:05:05;;;;;;;11.57;10.40;;;;;;;;;;5026170;28;20417;-64
2023/08/05 11:07:35;;;;;;;11.15;9.88;;;;;;;;;;5027507;28;20472;-64
2023/08/05 11:10:03;;;;;;;12.40;10.00;;;;;;;;;;5023211;28;20980;-63
2023/08/05 11:12:30;;;;;;;9.77;8.32;;;;;;;;;;5027921;28;20501;-63
2023/08/05 11:14:58;;;;;;;9.88;8.68;;;;;;;;;;5023123;28;20420;-62
2023/08/05 11:17:25;;;;;;;10.40;9.30;;;;;;;;;;5027453;28;20419;-63
2023/08/05 11:19:52;;;;;;;9.98;8.60;;;;;;;;;;5026405;28;20415;-63
2023/08/05 11:22:22;;;;;;;8.95;7.80;;;;;;;;;;5028990;28;20800;-63
2023/08/05 11:24:55;;;;;;;10.02;8.50;;;;;;;;;;5029863;28;20476;-63
2023/08/05 11:27:29;;;;;;;8.70;7.80;;;;;;;;;;5029548;28;20431;-64
2023/08/05 11:29:56;;;;;;;9.18;7.93;;;;;;;;;;5026784;28;20414;-62
2023/08/05 11:32:23;;;;;;;9.23;7.78;;;;;;;;;;5031694;28;20415;-63
2023/08/05 11:34:50;;;;;;;8.15;6.85;;;;;;;;;;5033003;28;20415;-63
2023/08/05 11:37:18;;;;;;;9.40;7.18;;;;;;;;;;5030510;28;20437;-62
2023/08/05 11:39:45;;;;;;;7.90;7.10;;;;;;;;;;5029387;28;20825;-63
2023/08/05 11:42:13;;;;;;;9.88;7.85;;;;;;;;;;5032976;28;20415;-63
2023/08/05 11:44:40;;;;;;;11.02;8.30;;;;;;;;;;5038507;28;20481;-63
2023/08/05 11:47:07;;;;;;;9.50;8.35;;;;;;;;;;5030320;28;20420;-62
2023/08/05 11:49:34;;;;;;;9.60;8.40;;;;;;;;;;5030448;28;20422;-63
2023/08/05 11:52:11;;;;;;;9.20;7.65;;;;;;;;;;5027254;28;20880;-63
2023/08/05 11:54:38;;;;;;;7.63;6.78;;;;;;;;;;5025560;28;20522;-63
2023/08/05 11:57:20;;;;;;;7.73;7.03;;;;;;;;;;5031958;28;20415;-63
2023/08/05 11:59:47;;;;;;;9.87;7.57;;;;;;;;;;5022851;28;20512;-66
2023/08/05 12:02:15;;;;;;;8.57;7.32;;;;;;;;;;5022670;28;20428;-63
2023/08/05 12:04:43;;;;;;;7.60;6.80;;;;;;;;;;5025328;28;20747;-63
2023/08/05 12:07:11;;;;;;;7.38;6.47;;;;;;;;;;5023097;28;20420;-62
2023/08/05 12:09:38;;;;;;;7.35;5.80;;;;;;;;;;5027044;28;20461;-62
2023/08/05 12:12:06;;;;;;;7.55;5.85;;;;;;;;;;5024116;28;20427;-62
2023/08/05 12:14:34;;;;;;;7.43;5.60;;;;;;;;;;5035109;28;20528;-62
2023/08/05 12:17:01;;;;;;;8.23;5.80;;;;;;;;;;5025891;28;20498;-62
2023/08/05 12:19:30;;;;;;;8.77;5.90;;;;;;;;;;5021980;28;21204;-63
2023/08/05 12:21:57;;;;;;;7.70;6.03;;;;;;;;;;5026456;28;20416;-63
2023/08/05 12:24:24;;;;;;;7.25;6.55;;;;;;;;;;5026663;28;20477;-63
2023/08/05 12:26:51;;;;;;;7.93;6.97;;;;;;;;;;5023128;28;20420;-64
2023/08/05 12:29:18;;;;;;;8.75;6.82;;;;;;;;;;5027340;28;20891;-63
2023/08/05 12:31:47;;;;;;;7.73;6.93;;;;;;;;;;5027171;28;20462;-63
2023/08/05 12:34:17;;;;;;;9.48;7.28;;;;;;;;;;5035246;28;20444;-63
2023/08/05 12:36:44;;;;;;;7.72;6.55;;;;;;;;;;5035249;28;20434;-64
2023/08/05 12:39:11;;;;;;;8.93;6.82;;;;;;;;;;5028683;28;20423;-64
2023/08/05 12:41:38;;;;;;;10.68;6.88;;;;;;;;;;5026170;28;20423;-64
2023/08/05 12:44:05;;;;;;;9.00;7.00;;;;;;;;;;5032994;28;20420;-64
2023/08/05 12:46:32;;;;;;;7.18;6.20;;;;;;;;;;5027736;28;20415;-63
2023/08/05 12:49:01;;;;;;;8.85;7.32;;;;;;;;;;5028506;28;20476;-64
2023/08/05 12:51:28;;;;;;;7.70;6.75;;;;;;;;;;5026057;28;20426;-62
2023/08/05 12:53:55;;;;;;;9.30;6.63;;;;;;;;;;5029133;28;20434;-62
2023/08/05 12:56:22;;;;;;;9.38;7.10;;;;;;;;;;5025240;28;20415;-61
2023/08/05 12:58:49;;;;;;;8.68;6.57;;;;;;;;;;5028664;28;20435;-63
2023/08/05 13:01:16;;;;;;;7.93;6.32;;;;;;;;;;5026973;28;20731;-60
2023/08/05 13:03:43;;;;;;;8.13;6.68;;;;;;;;;;5026503;28;20465;-60
2023/08/05 13:06:12;;;;;;;8.32;6.47;;;;;;;;;;5023148;28;20419;-60
2023/08/05 13:08:38;;;;;;;7.95;6.07;;;;;;;;;;5026026;28;20889;-60
2023/08/05 13:11:05;;;;;;;8.18;5.90;;;;;;;;;;5022034;28;20422;-60
2023/08/05 13:13:32;;;;;;;6.05;5.10;;;;;;;;;;5037195;28;20487;-60
2023/08/05 13:15:59;;;;;;;6.05;5.07;;;;;;;;;;5035702;28;20414;-60
2023/08/05 13:18:26;;;;;;;6.40;5.28;;;;;;;;;;5030226;28;20445;-61
2023/08/05 13:20:53;;;;;;;6.17;5.30;;;;;;;;;;5026321;28;20550;-60
2023/08/05 13:23:22;;;;;;;6.65;5.00;;;;;;;;;;5023569;28;20409;-60
2023/08/05 13:25:49;;;;;;;5.70;4.97;;;;;;;;;;5026129;28;20427;-60
2023/08/05 13:28:16;;;;;;;6.13;4.95;;;;;;;;;;5025173;28;20425;-60
2023/08/05 13:30:43;;;;;;;5.97;5.20;;;;;;;;;;5025384;28;20411;-61
2023/08/05 13:33:10;;;;;;;6.35;5.30;;;;;;;;;;5022174;28;20417;-60
2023/08/05 13:35:37;;;;;;;5.90;4.90;;;;;;;;;;5025405;28;20415;-60
2023/08/05 13:38:04;;;;;;;6.40;4.70;;;;;;;;;;5024250;28;20420;-61
2023/08/05 13:40:32;;;;;;;5.82;4.90;;;;;;;;;;5027176;28;20427;-61
2023/08/05 13:42:59;;;;;;;6.27;5.00;;;;;;;;;;5024898;28;20913;-60
2023/08/05 13:45:26;;;;;;;6.20;5.20;;;;;;;;;;5030503;28;20421;-60
2023/08/05 13:47:53;;;;;;;8.25;5.28;;;;;;;;;;5022716;28;20419;-61
2023/08/05 13:50:22;;;;;;;8.40;5.18;;;;;;;;;;5028482;28;20944;-61
2023/08/05 13:52:49;;;;;;;7.77;5.50;;;;;;;;;;5025560;28;20798;-60
2023/08/05 13:55:16;;;;;;;5.70;5.07;;;;;;;;;;5026227;28;20435;-61
2023/08/05 13:57:44;;;;;;;7.85;5.65;;;;;;;;;;5023751;28;20419;-60
2023/08/05 14:00:12;;;;;;;5.93;4.57;;;;;;;;;;5026367;28;20556;-60
2023/08/05 14:02:39;;;;;;;6.80;4.75;;;;;;;;;;5023660;28;20415;-58
2023/08/05 14:05:06;;;;;;;7.22;5.13;;;;;;;;;;5024365;28;20422;-57
2023/08/05 14:07:33;;;;;;;13.43;6.60;;;;;;;;;;5016131;28;20414;-60
2023/08/05 14:10:00;;;;;;;11.90;6.93;;;;;;;;;;5025087;28;20415;-60
2023/08/05 14:12:27;;;;;;;10.70;7.05;;;;;;;;;;5017760;28;20472;-61
2023/08/05 14:14:56;;;;;;;7.55;5.70;;;;;;;;;;5037324;28;20431;-60
2023/08/05 14:17:23;;;;;;;6.60;5.83;;;;;;;;;;5021584;28;20424;-60
2023/08/05 14:19:50;;;;;;;6.82;6.07;;;;;;;;;;5026689;28;21108;-60
2023/08/05 14:22:17;;;;;;;8.85;6.90;;;;;;;;;;5021269;28;20413;-60
2023/08/05 14:24:44;;;;;;;8.45;6.32;;;;;;;;;;5026876;28;20447;-61
2023/08/05 14:27:11;;;;;;;8.73;6.60;;;;;;;;;;5022874;28;20531;-61
2023/08/05 14:29:38;;;;;;;7.07;6.22;;;;;;;;;;5027111;28;20422;-61